Time;durP1;ratioP1;P1;durP2;ratioP2;P2;SDS_P1;SDS_P2;PMS_P1;PMS_P2;Temp;Humidity;BMP_temperature;BMP_pressure;BME280_temperature;BME280_humidity;BME280_pressure;Samples;Min_cycle;Max_cycle;Signal;HPM_P1;HPM_P2
2021/10/18 00:00:23;;;;;;;26.13;15.52;;;;;;;-139.48;100.00;61774.03;4977586;28;20046;-66
2021/10/18 00:03:07;;;;;;;28.52;16.92;;;;;;;-139.48;100.00;61774.03;4977305;28;20088;-66
2021/10/18 00:05:51;;;;;;;25.17;16.05;;;;;;;-139.48;100.00;61774.03;4976926;28;20068;-66
2021/10/18 00:08:35;;;;;;;23.45;14.80;;;;;;;-139.48;100.00;61774.03;4978228;28;20518;-66
2021/10/18 00:11:19;;;;;;;24.98;14.23;;;;;;;-139.48;100.00;61774.03;4977857;28;20523;-66
2021/10/18 00:14:05;;;;;;;22.83;14.98;;;;;;;-139.48;100.00;61774.03;4976956;28;20069;-66
2021/10/18 00:16:49;;;;;;;24.27;14.50;;;;;;;-139.48;100.00;61774.03;4976732;28;20053;-66
2021/10/18 00:19:33;;;;;;;23.65;13.90;;;;;;;-139.48;100.00;61774.03;4990451;28;20041;-66
2021/10/18 00:22:17;;;;;;;24.48;15.00;;;;;;;-139.48;100.00;61774.03;4976911;28;20110;-66
2021/10/18 00:25:01;;;;;;;23.60;15.30;;;;;;;-139.48;100.00;61774.03;4977533;28;20065;-66
2021/10/18 00:27:45;;;;;;;22.83;14.65;;;;;;;-139.48;100.00;61774.03;4976896;28;20057;-66
2021/10/18 00:30:31;;;;;;;26.60;15.55;;;;;;;-139.48;100.00;61774.03;4976745;28;20137;-66
2021/10/18 00:33:15;;;;;;;25.45;16.20;;;;;;;-139.48;100.00;61774.03;4976515;28;20053;-66
2021/10/18 00:35:59;;;;;;;25.08;15.68;;;;;;;-139.48;100.00;61774.03;4976210;28;20054;-66
2021/10/18 00:38:43;;;;;;;27.52;15.48;;;;;;;-139.48;100.00;61774.03;4976682;28;20046;-66
2021/10/18 00:41:26;;;;;;;28.17;15.38;;;;;;;-139.48;100.00;61774.03;4976346;28;20057;-66
2021/10/18 00:44:11;;;;;;;31.25;17.63;;;;;;;-139.48;100.00;61774.03;4990268;28;20408;-66
2021/10/18 00:46:55;;;;;;;28.40;16.95;;;;;;;-139.48;100.00;61774.03;4976514;28;20045;-66
2021/10/18 00:49:38;;;;;;;24.38;15.60;;;;;;;-139.48;100.00;61774.03;4976276;28;20058;-66
2021/10/18 00:52:22;;;;;;;32.08;15.63;;;;;;;-139.48;100.00;61774.03;4977374;28;20050;-66
2021/10/18 00:55:07;;;;;;;25.85;16.70;;;;;;;-139.48;100.00;61774.03;4976075;28;20562;-66
2021/10/18 00:57:52;;;;;;;29.25;16.35;;;;;;;-139.48;100.00;61774.03;4976097;28;20073;-66
2021/10/18 01:00:36;;;;;;;28.23;16.60;;;;;;;-139.48;100.00;61774.03;4976220;28;20064;-65
2021/10/18 01:03:21;;;;;;;25.02;15.63;;;;;;;-139.48;100.00;61774.03;4976132;28;20097;-66
2021/10/18 01:06:05;;;;;;;30.02;17.98;;;;;;;-139.48;100.00;61774.03;4975801;28;20078;-66
2021/10/18 01:08:49;;;;;;;22.08;14.27;;;;;;;-139.48;100.00;61774.03;4976150;28;20052;-66
2021/10/18 01:11:33;;;;;;;26.25;15.75;;;;;;;-139.48;100.00;61774.03;4989566;28;20070;-66
2021/10/18 01:14:17;;;;;;;26.80;16.40;;;;;;;-139.48;100.00;61774.03;4976789;28;20105;-66
2021/10/18 01:17:00;;;;;;;26.02;15.27;;;;;;;-139.48;100.00;61774.03;4975929;28;20046;-66
2021/10/18 01:19:45;;;;;;;23.48;14.77;;;;;;;-139.48;100.00;61774.03;4975928;28;20143;-66
2021/10/18 01:22:28;;;;;;;22.05;13.82;;;;;;;-139.48;100.00;61774.03;4975577;28;20050;-66
2021/10/18 01:25:12;;;;;;;19.40;12.98;;;;;;;-139.48;100.00;61774.03;4976699;28;20046;-66
2021/10/18 01:27:56;;;;;;;23.52;14.27;;;;;;;-139.48;100.00;61774.03;4975801;28;20152;-66
2021/10/18 01:30:41;;;;;;;21.38;12.90;;;;;;;-139.48;100.00;61774.03;4975495;28;20104;-66
2021/10/18 01:33:25;;;;;;;21.90;14.57;;;;;;;-139.48;100.00;61774.03;4975454;28;20050;-66
2021/10/18 01:36:09;;;;;;;24.20;14.50;;;;;;;-139.48;100.00;61774.03;4975156;28;20054;-66
2021/10/18 01:38:53;;;;;;;20.92;13.35;;;;;;;-139.48;100.00;61774.03;4975335;28;20050;-67
2021/10/18 01:41:36;;;;;;;19.95;13.15;;;;;;;-139.48;100.00;61774.03;4976344;28;20138;-69
2021/10/18 01:44:20;;;;;;;24.10;14.35;;;;;;;-139.48;100.00;61774.03;4975434;28;20411;-65
2021/10/18 01:47:04;;;;;;;20.58;13.20;;;;;;;-139.48;100.00;61774.03;4975677;28;20097;-66
2021/10/18 01:49:48;;;;;;;22.45;14.63;;;;;;;-139.48;100.00;61774.03;4976228;28;20050;-66
2021/10/18 01:52:32;;;;;;;17.75;12.35;;;;;;;-139.48;100.00;61774.03;4976219;28;20049;-68
2021/10/18 01:55:16;;;;;;;20.35;13.88;;;;;;;-139.48;100.00;61774.03;4988776;28;20049;-66
2021/10/18 01:58:00;;;;;;;24.10;14.80;;;;;;;-139.48;100.00;61774.03;4975218;28;20048;-66
2021/10/18 02:00:44;;;;;;;22.65;14.10;;;;;;;-139.48;100.00;61774.03;4974982;28;20073;-66
2021/10/18 02:03:28;;;;;;;23.77;15.07;;;;;;;-139.48;100.00;61774.03;4975138;28;20082;-66
2021/10/18 02:06:12;;;;;;;24.92;14.98;;;;;;;-139.48;100.00;61774.03;4975125;28;20407;-66
2021/10/18 02:08:57;;;;;;;;;;;;;;;-139.48;100.00;61774.03;4989137;28;20475;-66
2021/10/18 02:11:41;;;;;;;20.80;13.07;;;;;;;-139.48;100.00;61774.03;4975926;28;19963;-66
2021/10/18 02:14:25;;;;;;;19.88;13.88;;;;;;;-139.48;100.00;61774.03;4975676;28;20053;-69
2021/10/18 02:17:09;;;;;;;21.42;13.93;;;;;;;-139.48;100.00;61774.03;4974171;28;20054;-67
2021/10/18 02:19:53;;;;;;;25.35;15.27;;;;;;;-139.48;100.00;61774.03;4974809;28;20126;-66
2021/10/18 02:22:37;;;;;;;26.02;15.45;;;;;;;-139.48;100.00;61774.03;4975471;28;20141;-66
2021/10/18 02:25:21;;;;;;;22.92;14.07;;;;;;;-139.48;100.00;61774.03;4974592;28;20049;-66
2021/10/18 02:28:05;;;;;;;22.42;14.23;;;;;;;-139.48;100.00;61774.03;4974713;28;20101;-67
2021/10/18 02:30:49;;;;;;;21.00;13.43;;;;;;;-139.48;100.00;61774.03;4974848;28;20053;-67
2021/10/18 02:33:34;;;;;;;20.95;12.45;;;;;;;-139.48;100.00;61774.03;4974287;28;20427;-66
2021/10/18 02:36:17;;;;;;;18.67;12.35;;;;;;;-139.48;100.00;61774.03;4974433;28;20054;-68
2021/10/18 02:39:02;;;;;;;20.75;13.00;;;;;;;-139.48;100.00;61774.03;4974494;28;20105;-66
2021/10/18 02:41:46;;;;;;;22.88;12.95;;;;;;;-139.48;100.00;61774.03;4974650;28;20503;-66
2021/10/18 02:44:30;;;;;;;19.95;12.43;;;;;;;-139.48;100.00;61774.03;4987925;28;20041;-69
2021/10/18 02:47:14;;;;;;;20.15;12.07;;;;;;;-139.48;100.00;61774.03;4974050;28;20109;-66
2021/10/18 02:49:57;;;;;;;19.70;12.60;;;;;;;-139.48;100.00;61774.03;4974235;28;20113;-66
2021/10/18 02:52:42;;;;;;;18.35;12.15;;;;;;;-139.48;100.00;61774.03;4974287;28;20080;-66
2021/10/18 02:55:25;;;;;;;19.35;11.50;;;;;;;-139.48;100.00;61774.03;4987725;28;20133;-66
2021/10/18 02:58:09;;;;;;;18.02;11.70;;;;;;;-139.48;100.00;61774.03;4974139;28;20058;-66
2021/10/18 03:00:53;;;;;;;21.05;10.45;;;;;;;-139.48;100.00;61774.03;4973966;28;20058;-69
2021/10/18 03:03:37;;;;;;;15.68;10.43;;;;;;;-139.48;100.00;61774.03;4987998;28;20467;-67
2021/10/18 03:06:21;;;;;;;15.40;10.60;;;;;;;-139.48;100.00;61774.03;4974249;28;20101;-68
2021/10/18 03:09:06;;;;;;;20.45;10.70;;;;;;;-139.48;100.00;61774.03;4987448;28;20130;-68
2021/10/18 03:11:50;;;;;;;13.80;10.00;;;;;;;-139.48;100.00;61774.03;4973642;28;20103;-68
2021/10/18 03:14:34;;;;;;;;;;;;;;;-139.48;100.00;61774.03;4974063;28;20046;-66
2021/10/18 03:17:18;;;;;;;16.27;10.35;;;;;;;-139.48;100.00;61774.03;4973847;28;19957;-68
2021/10/18 03:20:03;;;;;;;12.88;9.82;;;;;;;-139.48;100.00;61774.03;4975051;28;20065;-68
2021/10/18 03:22:47;;;;;;;13.63;10.55;;;;;;;-139.48;100.00;61774.03;4974517;28;20061;-68
2021/10/18 03:25:34;;;;;;;15.32;10.18;;;;;;;-139.48;100.00;61774.03;4974664;28;20097;-68
2021/10/18 03:28:18;;;;;;;14.32;9.43;;;;;;;-139.48;100.00;61774.03;4973534;28;20058;-68
2021/10/18 03:31:02;;;;;;;13.77;10.25;;;;;;;-139.48;100.00;61774.03;4973735;28;20053;-68
2021/10/18 03:33:46;;;;;;;12.40;8.52;;;;;;;-139.48;100.00;61774.03;4973418;28;20097;-68
2021/10/18 03:36:30;;;;;;;14.00;9.57;;;;;;;-139.48;100.00;61774.03;4975297;28;20050;-68
2021/10/18 03:39:14;;;;;;;15.77;9.20;;;;;;;-139.48;100.00;61774.03;4973359;28;20447;-68
2021/10/18 03:41:58;;;;;;;16.60;9.75;;;;;;;-139.48;100.00;61774.03;4973607;28;20530;-68
2021/10/18 03:44:41;;;;;;;15.05;9.55;;;;;;;-139.48;100.00;61774.03;4974263;28;20511;-68
2021/10/18 03:47:25;;;;;;;15.60;9.27;;;;;;;-139.48;100.00;61774.03;4973574;28;20085;-68
2021/10/18 03:50:09;;;;;;;12.20;8.77;;;;;;;-139.48;100.00;61774.03;4973229;28;20077;-67
2021/10/18 03:52:53;;;;;;;12.32;9.25;;;;;;;-139.48;100.00;61774.03;4973530;28;20050;-68
2021/10/18 03:55:37;;;;;;;14.10;9.05;;;;;;;-139.48;100.00;61774.03;4973112;28;20483;-68
2021/10/18 03:58:21;;;;;;;12.48;8.40;;;;;;;-139.48;100.00;61774.03;4973715;28;20049;-68
2021/10/18 04:01:09;;;;;;;18.20;9.23;;;;;;;-139.48;100.00;61774.03;4973477;28;20079;-68
2021/10/18 04:03:53;;;;;;;12.60;9.02;;;;;;;-139.48;100.00;61774.03;4973726;28;20053;-68
2021/10/18 04:06:37;;;;;;;;;;;;;;;-139.48;100.00;61774.03;4974798;28;20050;-68
2021/10/18 04:09:21;;;;;;;14.37;9.97;;;;;;;-139.48;100.00;61774.03;4973661;28;19921;-68
2021/10/18 04:12:06;;;;;;;13.57;9.68;;;;;;;-139.48;100.00;61774.03;4974294;28;20049;-68
2021/10/18 04:14:50;;;;;;;13.68;9.65;;;;;;;-139.48;100.00;61774.03;4972903;28;20053;-68
2021/10/18 04:17:34;;;;;;;14.07;9.98;;;;;;;-139.48;100.00;61774.03;4973039;28;20057;-68
2021/10/18 04:20:18;;;;;;;12.00;8.88;;;;;;;-139.48;100.00;61774.03;4974259;28;20463;-67
2021/10/18 04:23:02;;;;;;;15.38;11.18;;;;;;;-139.48;100.00;61774.03;4972954;28;20113;-67
2021/10/18 04:25:45;;;;;;;14.32;10.23;;;;;;;-139.48;100.00;61774.03;4972878;28;20046;-67
2021/10/18 04:28:29;;;;;;;14.32;9.93;;;;;;;-139.48;100.00;61774.03;4972973;28;20053;-68
2021/10/18 04:31:13;;;;;;;12.80;9.20;;;;;;;-139.48;100.00;61774.03;4973326;28;20105;-68
2021/10/18 04:33:57;;;;;;;12.98;8.75;;;;;;;-139.48;100.00;61774.03;4986766;28;20603;-67
2021/10/18 04:36:40;;;;;;;12.20;8.85;;;;;;;-139.48;100.00;61774.03;4973097;28;20045;-67
2021/10/18 04:39:24;;;;;;;12.35;8.68;;;;;;;-139.48;100.00;61774.03;4974104;28;20073;-68
2021/10/18 04:42:08;;;;;;;10.32;7.63;;;;;;;-139.48;100.00;61774.03;4976605;28;20141;-67
2021/10/18 04:44:52;;;;;;;13.80;8.18;;;;;;;-139.48;100.00;61774.03;4990367;28;20046;-68
2021/10/18 04:47:42;;;;;;;12.00;8.75;;;;;;;-139.48;100.00;61774.03;4976719;28;20130;-68
2021/10/18 04:50:26;;;;;;;11.77;8.63;;;;;;;-139.48;100.00;61774.03;4976570;28;20057;-67
2021/10/18 04:53:10;;;;;;;11.75;8.02;;;;;;;-139.48;100.00;61774.03;4976614;28;20130;-68
2021/10/18 04:55:54;;;;;;;16.83;8.00;;;;;;;-139.48;100.00;61774.03;4975952;28;20049;-68
2021/10/18 04:58:37;;;;;;;13.52;8.35;;;;;;;-139.48;100.00;61774.03;4976294;28;20058;-67
2021/10/18 05:01:22;;;;;;;13.07;8.63;;;;;;;-139.48;100.00;61774.03;4976973;28;20052;-67
2021/10/18 05:04:05;;;;;;;13.52;9.02;;;;;;;-139.48;100.00;61774.03;4976842;28;20109;-68
2021/10/18 05:06:49;;;;;;;;;;;;;;;-139.48;100.00;61774.03;4990030;28;20049;-68
2021/10/18 05:09:35;;;;;;;21.73;10.45;;;;;;;-139.48;100.00;61774.03;4975861;28;19920;-67
2021/10/18 05:12:19;;;;;;;22.55;10.32;;;;;;;-139.48;100.00;61774.03;4976106;28;20108;-68
2021/10/18 05:15:04;;;;;;;34.63;12.80;;;;;;;-139.48;100.00;61774.03;4975809;28;20471;-67
2021/10/18 05:17:48;;;;;;;30.52;11.45;;;;;;;-139.48;100.00;61774.03;4975996;28;20053;-67
2021/10/18 05:20:33;;;;;;;24.75;10.55;;;;;;;-139.48;100.00;61774.03;4976015;28;20467;-68
2021/10/18 05:23:17;;;;;;;29.38;11.85;;;;;;;-139.48;100.00;61774.03;4975779;28;20514;-67
2021/10/18 05:26:01;;;;;;;25.73;11.45;;;;;;;-139.48;100.00;61774.03;4975819;28;20512;-67
2021/10/18 05:28:45;;;;;;;35.55;12.85;;;;;;;-139.48;100.00;61774.03;4975798;28;20096;-67
2021/10/18 05:31:29;;;;;;;38.15;12.68;;;;;;;-139.48;100.00;61774.03;4989438;28;20054;-67
2021/10/18 05:34:13;;;;;;;32.70;11.82;;;;;;;-139.48;100.00;61774.03;4975233;28;20054;-67
2021/10/18 05:36:57;;;;;;;29.98;12.18;;;;;;;-139.48;100.00;61774.03;4975667;28;20053;-67
2021/10/18 05:39:41;;;;;;;39.05;13.50;;;;;;;-139.48;100.00;61774.03;4976298;28;20428;-67
2021/10/18 05:42:25;;;;;;;29.40;12.60;;;;;;;-139.48;100.00;61774.03;4975766;28;20089;-67
2021/10/18 05:45:09;;;;;;;28.95;12.57;;;;;;;-139.48;100.00;61774.03;4975155;28;20046;-67
2021/10/18 05:47:55;;;;;;;31.98;12.30;;;;;;;-139.48;100.00;61774.03;4975492;28;20479;-67
2021/10/18 05:50:43;;;;;;;35.08;13.80;;;;;;;-139.48;100.00;61774.03;4974314;28;20080;-67
2021/10/18 05:53:27;;;;;;;26.65;12.25;;;;;;;-139.48;100.00;61774.03;4975796;28;20061;-67
2021/10/18 05:56:11;;;;;;;30.50;12.35;;;;;;;-139.48;100.00;61774.03;4974877;28;20057;-67
2021/10/18 05:58:55;;;;;;;39.97;14.13;;;;;;;-139.48;100.00;61774.03;4975150;28;20091;-67
2021/10/18 06:01:39;;;;;;;34.85;12.98;;;;;;;-139.48;100.00;61774.03;4974940;28;20467;-67
2021/10/18 06:04:23;;;;;;;28.80;12.43;;;;;;;-139.48;100.00;61774.03;4974778;28;20101;-67
2021/10/18 06:07:08;;;;;;;31.30;11.98;;;;;;;-139.48;100.00;61774.03;4975100;28;20124;-67
2021/10/18 06:09:52;;;;;;;26.00;12.02;;;;;;;-139.48;100.00;61774.03;4961369;28;20057;-67
2021/10/18 06:12:37;;;;;;;40.17;15.32;;;;;;;-139.48;100.00;61774.03;4975002;28;20125;-67
2021/10/18 06:15:21;;;;;;;39.63;14.15;;;;;;;-139.48;100.00;61774.03;4974479;28;20130;-67
2021/10/18 06:18:11;;;;;;;42.50;16.23;;;;;;;-139.48;100.00;61774.03;4975855;28;20054;-67
2021/10/18 06:20:56;;;;;;;41.63;14.55;;;;;;;-139.48;100.00;61774.03;4974444;28;20049;-67
2021/10/18 06:23:40;;;;;;;51.97;17.02;;;;;;;-139.48;100.00;61774.03;4974475;28;20130;-66
2021/10/18 06:26:24;;;;;;;49.88;16.13;;;;;;;-139.48;100.00;61774.03;4988474;28;20563;-67
2021/10/18 06:29:08;;;;;;;43.03;16.38;;;;;;;-139.48;100.00;61774.03;4974744;28;20053;-67
2021/10/18 06:31:52;;;;;;;37.70;14.60;;;;;;;-139.48;100.00;61774.03;4974662;28;20058;-67
2021/10/18 06:34:36;;;;;;;41.65;14.85;;;;;;;-139.48;100.00;61774.03;4974191;28;20089;-67
2021/10/18 06:37:20;;;;;;;37.83;14.15;;;;;;;-139.48;100.00;61774.03;4975478;28;20061;-67
2021/10/18 06:40:04;;;;;;;44.88;16.25;;;;;;;-139.48;100.00;61774.03;4974227;28;20054;-67
2021/10/18 06:42:48;;;;;;;38.42;13.80;;;;;;;-139.48;100.00;61774.03;4974488;28;20412;-67
2021/10/18 06:45:33;;;;;;;37.58;13.57;;;;;;;-139.48;100.00;61774.03;4974145;28;20479;-67
2021/10/18 06:48:17;;;;;;;39.65;13.43;;;;;;;-139.48;100.00;61774.03;4974312;28;20548;-67
2021/10/18 06:51:01;;;;;;;29.25;12.40;;;;;;;-139.48;100.00;61774.03;4974992;28;20151;-67
2021/10/18 06:53:48;;;;;;;39.20;13.38;;;;;;;-139.48;100.00;61774.03;4960322;28;20097;-67
2021/10/18 06:56:32;;;;;;;33.05;12.85;;;;;;;-139.48;100.00;61774.03;4974224;28;20081;-67
2021/10/18 06:59:16;;;;;;;48.55;13.52;;;;;;;-139.48;100.00;61774.03;4973819;28;20070;-67
2021/10/18 07:02:00;;;;;;;52.88;13.45;;;;;;;-139.48;100.00;61774.03;4987345;28;20073;-67
2021/10/18 07:04:44;;;;;;;35.92;11.85;;;;;;;-139.48;100.00;61774.03;4973937;28;20563;-67
2021/10/18 07:07:28;;;;;;;44.08;12.65;;;;;;;-139.48;100.00;61774.03;4974242;28;20518;-67
2021/10/18 07:10:12;;;;;;;28.40;11.43;;;;;;;-139.48;100.00;61774.03;4974029;28;20054;-67
2021/10/18 07:12:56;;;;;;;38.95;12.55;;;;;;;-139.48;100.00;61774.03;4987706;28;20054;-67
2021/10/18 07:15:40;;;;;;;;;;;;;;;-139.48;100.00;61774.03;4975074;28;20054;-67
2021/10/18 07:18:24;;;;;;;38.70;11.60;;;;;;;-139.48;100.00;61774.03;4974930;28;19921;-66
2021/10/18 07:21:08;;;;;;;62.17;12.98;;;;;;;-139.48;100.00;61774.03;4973605;28;20484;-67
2021/10/18 07:23:52;;;;;;;56.75;14.23;;;;;;;-139.48;100.00;61774.03;4973972;28;20510;-67
2021/10/18 07:26:36;;;;;;;71.60;14.75;;;;;;;-139.48;100.00;61774.03;4973659;28;20126;-68
2021/10/18 07:29:21;;;;;;;82.65;14.20;;;;;;;-139.48;100.00;61774.03;4973523;28;20097;-67
2021/10/18 07:32:06;;;;;;;77.78;15.95;;;;;;;-139.48;100.00;61774.03;4974050;28;20109;-67
2021/10/18 07:34:50;;;;;;;55.97;13.48;;;;;;;-139.48;100.00;61774.03;4973306;28;20057;-67
2021/10/18 07:37:34;;;;;;;40.75;14.20;;;;;;;-139.48;100.00;61774.03;4974639;28;20053;-67
2021/10/18 07:40:18;;;;;;;47.42;14.85;;;;;;;-139.48;100.00;61774.03;4973668;28;20532;-67
2021/10/18 07:43:02;;;;;;;41.40;14.05;;;;;;;-139.48;100.00;61774.03;4987194;28;20053;-67
2021/10/18 07:45:46;;;;;;;30.52;13.02;;;;;;;-139.48;100.00;61774.03;4974303;28;20049;-67
2021/10/18 07:48:29;;;;;;;34.17;14.70;;;;;;;-139.48;100.00;61774.03;4987213;28;20053;-67
2021/10/18 07:51:13;;;;;;;31.30;14.10;;;;;;;-139.48;100.00;61774.03;4973725;28;20507;-66
2021/10/18 07:53:57;;;;;;;28.80;13.43;;;;;;;-139.48;100.00;61774.03;4973238;28;20050;-67
2021/10/18 07:56:41;;;;;;;34.55;13.88;;;;;;;-139.48;100.00;61774.03;4987256;28;20408;-67
2021/10/18 07:59:25;;;;;;;29.02;13.20;;;;;;;-139.48;100.00;61774.03;4974481;28;20053;-67
2021/10/18 08:02:09;;;;;;;26.13;12.77;;;;;;;-139.48;100.00;61774.03;4973214;28;20085;-67
2021/10/18 08:04:53;;;;;;;28.38;13.85;;;;;;;-139.48;100.00;61774.03;4973458;28;20139;-67
2021/10/18 08:07:38;;;;;;;32.75;15.88;;;;;;;-139.48;100.00;61774.03;4987258;28;20054;-67
2021/10/18 08:10:25;;;;;;;38.03;17.23;;;;;;;-139.48;100.00;61774.03;4974205;28;20140;-67
2021/10/18 08:13:08;;;;;;;30.02;14.88;;;;;;;-139.48;100.00;61774.03;4973312;28;20077;-67
2021/10/18 08:15:52;;;;;;;33.80;15.80;;;;;;;-139.48;100.00;61774.03;4990811;28;20046;-67
2021/10/18 08:18:38;;;;;;;39.70;18.63;;;;;;;-139.48;100.00;61774.03;4977050;28;20053;-67
2021/10/18 08:21:22;;;;;;;44.95;22.50;;;;;;;-139.48;100.00;61774.03;4977307;28;20077;-67
2021/10/18 08:24:06;;;;;;;37.40;17.83;;;;;;;-139.48;100.00;61774.03;4977878;28;20097;-67
2021/10/18 08:26:50;;;;;;;47.58;19.65;;;;;;;-139.48;100.00;61774.03;4977642;28;20049;-67
2021/10/18 08:29:34;;;;;;;41.30;18.80;;;;;;;-139.48;100.00;61774.03;4976976;28;20543;-67
2021/10/18 08:32:18;;;;;;;36.53;18.35;;;;;;;-139.48;100.00;61774.03;4976892;28;20062;-67
2021/10/18 08:35:03;;;;;;;43.13;19.88;;;;;;;-139.48;100.00;61774.03;4990398;28;20551;-67
2021/10/18 08:41:02;;;;;;;47.28;19.42;;;;;;;-139.48;100.00;61774.03;4976652;28;20058;-67
2021/10/18 08:46:58;;;;;;;43.00;19.25;;;;;;;-139.48;100.00;61774.03;4977694;28;20072;-67
2021/10/18 08:49:42;;;;;;;33.33;18.98;;;;;;;-139.48;100.00;61774.03;4976843;28;20041;-67
2021/10/18 08:52:26;;;;;;;36.85;18.90;;;;;;;-139.48;100.00;61774.03;4976527;28;20058;-67
2021/10/18 08:55:10;;;;;;;31.35;17.15;;;;;;;-139.48;100.00;61774.03;4976493;28;20049;-67
2021/10/18 08:57:54;;;;;;;37.40;18.33;;;;;;;-139.48;100.00;61774.03;4976304;28;20057;-67
2021/10/18 09:00:39;;;;;;;33.17;18.50;;;;;;;-139.48;100.00;61774.03;4976302;28;20100;-67
2021/10/18 09:03:31;;;;;;;35.80;17.73;;;;;;;-139.48;100.00;61774.03;4977400;28;20105;-67
2021/10/18 09:06:22;;;;;;;32.17;18.38;;;;;;;-139.48;100.00;61774.03;4976222;28;20098;-67
2021/10/18 09:09:08;;;;;;;29.88;17.88;;;;;;;-139.48;100.00;61774.03;4977161;28;20054;-67
2021/10/18 09:11:53;;;;;;;28.17;16.42;;;;;;;-139.48;100.00;61774.03;4975842;28;20105;-67
2021/10/18 09:14:38;;;;;;;30.58;16.40;;;;;;;-139.48;100.00;61774.03;4975639;28;20062;-67
2021/10/18 09:17:34;;;;;;;26.33;16.08;;;;;;;-139.48;100.00;61774.03;4977193;28;20069;-67
2021/10/18 09:20:33;;;;;;;30.10;16.75;;;;;;;-139.48;100.00;61774.03;4962085;28;20057;-67
2021/10/18 09:23:38;;;;;;;26.75;15.82;;;;;;;-139.48;100.00;61774.03;4961967;28;20046;-67
2021/10/18 09:26:24;;;;;;;31.40;16.80;;;;;;;-139.48;100.00;61774.03;4975516;28;20133;-67
2021/10/18 09:29:11;;;;;;;24.55;15.68;;;;;;;-139.48;100.00;61774.03;4975776;28;20078;-67
2021/10/18 09:32:00;;;;;;;28.77;15.95;;;;;;;-139.48;100.00;61774.03;4976711;28;20090;-67
2021/10/18 09:34:44;;;;;;;26.50;15.13;;;;;;;-139.48;100.00;61774.03;4975245;28;20463;-67
2021/10/18 09:37:37;;;;;;;32.05;17.65;;;;;;;-139.48;100.00;61774.03;5017845;23;20079;-70
2021/10/18 09:40:36;;;;;;;31.05;17.58;;;;;;;-139.48;100.00;61774.03;5014532;28;20053;-69
2021/10/18 09:43:39;;;;;;;30.23;17.88;;;;;;;-139.48;100.00;61774.03;5015432;28;20169;-70
2021/10/18 09:46:50;;;;;;;33.28;18.80;;;;;;;-139.48;100.00;61774.03;5014991;28;20439;-72
2021/10/18 10:52:02;;;;;;;25.33;16.48;;;;;;;-139.48;100.00;61774.03;5013941;28;20040;-72
2021/10/18 10:54:46;;;;;;;24.60;16.70;;;;;;;-139.48;100.00;61774.03;5013309;28;20045;-72
2021/10/18 10:57:31;;;;;;;27.27;15.75;;;;;;;-139.48;100.00;61774.03;5012834;28;20132;-72
2021/10/18 11:00:39;;;;;;;22.08;14.85;;;;;;;-139.48;100.00;61774.03;5012838;28;20549;-72
2021/10/18 11:03:41;;;;;;;24.15;17.60;;;;;;;-139.48;100.00;61774.03;5013050;28;20530;-72
2021/10/18 11:06:45;;;;;;;28.42;16.85;;;;;;;-139.48;100.00;61774.03;5013191;28;20065;-72
2021/10/18 11:09:37;;;;;;;29.35;18.08;;;;;;;-139.48;100.00;61774.03;5014263;28;20133;-72
2021/10/18 11:12:35;;;;;;;25.65;16.77;;;;;;;-139.48;100.00;61774.03;5013874;28;20053;-72
2021/10/18 11:15:25;;;;;;;26.05;17.95;;;;;;;-139.48;100.00;61774.03;5012557;28;20056;-72
2021/10/18 11:18:09;;;;;;;29.65;18.48;;;;;;;-139.48;100.00;61774.03;5012848;28;20044;-72
2021/10/18 11:20:53;;;;;;;26.55;16.85;;;;;;;-139.48;100.00;61774.03;5013053;28;20053;-72
2021/10/18 11:24:00;;;;;;;24.23;16.33;;;;;;;-139.48;100.00;61774.03;5013835;28;20119;-72
2021/10/18 11:26:44;;;;;;;24.63;17.08;;;;;;;-139.48;100.00;61774.03;5012446;28;20414;-72
2021/10/18 11:29:31;;;;;;;23.30;16.27;;;;;;;-139.48;100.00;61774.03;5013754;28;20056;-71
2021/10/18 11:32:14;;;;;;;27.05;17.23;;;;;;;-139.48;100.00;61774.03;5012396;28;20068;-73
2021/10/18 11:35:13;;;;;;;22.20;16.42;;;;;;;-139.48;100.00;61774.03;5012525;28;20052;-72
2021/10/18 11:38:08;;;;;;;22.65;16.40;;;;;;;-139.48;100.00;61774.03;5012204;28;20100;-73
2021/10/18 11:40:52;;;;;;;24.15;16.58;;;;;;;-139.48;100.00;61774.03;4998990;28;20052;-73
2021/10/18 11:43:35;;;;;;;22.13;16.65;;;;;;;-139.48;100.00;61774.03;4998649;28;20170;-73
2021/10/18 11:46:19;;;;;;;20.67;14.73;;;;;;;-139.48;100.00;61774.03;5012507;28;20052;-72
2021/10/18 11:49:06;;;;;;;;;;;;;;;-139.48;100.00;61774.03;4999985;28;20057;-68
2021/10/18 11:51:51;;;;;;;22.48;14.70;;;;;;;-139.48;100.00;61774.03;5016590;28;20362;-70
2021/10/18 11:54:34;;;;;;;;;;;;;;;-139.48;100.00;61774.03;5003371;28;20053;-73
2021/10/18 11:57:19;;;;;;;18.33;14.40;;;;;;;-139.48;100.00;61774.03;5016396;28;19921;-70
2021/10/18 12:00:03;;;;;;;20.85;15.45;;;;;;;-139.48;100.00;61774.03;5016396;28;20247;-70
2021/10/18 12:02:47;;;;;;;19.58;14.75;;;;;;;-139.48;100.00;61774.03;5016378;28;20052;-72
2021/10/18 12:05:35;;;;;;;;;;;;;;;-139.48;100.00;61774.03;5016835;28;20176;-72
2021/10/18 12:08:21;;;;;;;17.95;13.68;;;;;;;-139.48;100.00;61774.03;5016449;28;20367;-72
2021/10/18 12:11:07;;;;;;;17.08;13.98;;;;;;;-139.48;100.00;61774.03;5016155;28;20060;-72
2021/10/18 12:13:51;;;;;;;17.48;14.25;;;;;;;-139.48;100.00;61774.03;5015892;28;20503;-71
2021/10/18 12:16:36;;;;;;;19.10;14.73;;;;;;;-139.48;100.00;61774.03;5015798;28;20104;-73
2021/10/18 12:19:24;;;;;;;18.23;13.82;;;;;;;-139.48;100.00;61774.03;5015997;28;20053;-73
2021/10/18 12:22:08;;;;;;;18.42;15.10;;;;;;;-139.48;100.00;61774.03;5015919;28;20466;-73
2021/10/18 12:25:03;;;;;;;18.92;13.40;;;;;;;-139.48;100.00;61774.03;5015945;28;20085;-73
2021/10/18 12:27:47;;;;;;;18.90;13.82;;;;;;;-139.48;100.00;61774.03;5016495;28;20104;-73
2021/10/18 12:30:38;;;;;;;;;;;;;;;-139.48;100.00;61774.03;5016972;28;20052;-73
2021/10/18 12:33:35;;;;;;;16.00;12.73;;;;;;;-139.48;100.00;61774.03;5015634;28;19967;-73
2021/10/18 12:36:19;;;;;;;17.08;11.50;;;;;;;-139.48;100.00;61774.03;5015377;28;20108;-73
2021/10/18 12:39:03;;;;;;;13.93;11.77;;;;;;;-139.48;100.00;61774.03;5001694;28;20083;-73
2021/10/18 12:41:47;;;;;;;17.05;11.27;;;;;;;-139.48;100.00;61774.03;5016653;28;20101;-73
2021/10/18 12:44:35;;;;;;;14.45;11.07;;;;;;;-139.48;100.00;61774.03;5001349;28;20052;-73
2021/10/18 12:47:24;;;;;;;16.60;12.23;;;;;;;-139.48;100.00;61774.03;5015375;28;20418;-72
2021/10/18 12:50:08;;;;;;;17.27;11.85;;;;;;;-139.48;100.00;61774.03;5001893;28;20557;-73
2021/10/18 12:52:57;;;;;;;13.30;11.15;;;;;;;-139.48;100.00;61774.03;5015196;28;20438;-73
2021/10/18 12:55:41;;;;;;;14.18;10.45;;;;;;;-139.48;100.00;61774.03;5015548;28;20044;-71
2021/10/18 12:58:27;;;;;;;16.10;10.55;;;;;;;-139.48;100.00;61774.03;5015290;28;20092;-73
2021/10/18 13:01:14;;;;;;;16.58;11.07;;;;;;;-139.48;100.00;61774.03;5014647;28;20049;-73
2021/10/18 13:04:18;;;;;;;16.40;11.73;;;;;;;-139.48;100.00;61774.03;5015171;28;20099;-73
2021/10/18 13:07:02;;;;;;;16.33;11.20;;;;;;;-139.48;100.00;61774.03;5001077;28;20060;-70
2021/10/18 13:09:46;;;;;;;15.13;11.10;;;;;;;-139.48;100.00;61774.03;5014764;28;20104;-73
2021/10/18 13:12:30;;;;;;;14.63;10.85;;;;;;;-139.48;100.00;61774.03;5014797;28;20052;-73
2021/10/18 13:15:16;;;;;;;12.98;10.68;;;;;;;-139.48;100.00;61774.03;5001114;28;20048;-73
2021/10/18 13:18:00;;;;;;;14.30;10.30;;;;;;;-139.48;100.00;61774.03;5014635;28;20045;-73
2021/10/18 13:20:45;;;;;;;12.30;10.10;;;;;;;-139.48;100.00;61774.03;5015565;28;20589;-73
2021/10/18 13:23:30;;;;;;;14.18;10.77;;;;;;;-139.48;100.00;61774.03;5014799;28;20128;-73
2021/10/18 13:26:14;;;;;;;12.13;10.25;;;;;;;-139.48;100.00;61774.03;5014675;28;20598;-73